sensor_id;sensor_type;location;lat;lon;timestamp;temperature;humidity
35277;DHT22;21401;50.878;8.050;2023-02-28T00:00:25;-1.50;99.90
35277;DHT22;21401;50.878;8.050;2023-02-28T00:02:51;-1.60;99.90
35277;DHT22;21401;50.878;8.050;2023-02-28T00:05:22;-1.60;99.90
35277;DHT22;21401;50.878;8.050;2023-02-28T00:07:48;-1.70;99.90
35277;DHT22;21401;50.878;8.050;2023-02-28T00:10:17;-1.70;99.90
35277;DHT22;21401;50.878;8.050;2023-02-28T00:12:50;-1.50;99.90
35277;DHT22;21401;50.878;8.050;2023-02-28T00:15:17;-1.70;99.90
35277;DHT22;21401;50.878;8.050;2023-02-28T00:17:45;-1.80;99.90
35277;DHT22;21401;50.878;8.050;2023-02-28T00:20:12;-1.70;99.90
35277;DHT22;21401;50.878;8.050;2023-02-28T00:22:42;-1.80;99.90
35277;DHT22;21401;50.878;8.050;2023-02-28T00:25:09;-1.90;99.90
35277;DHT22;21401;50.878;8.050;2023-02-28T00:27:36;-1.90;99.90
35277;DHT22;21401;50.878;8.050;2023-02-28T00:30:03;-1.90;99.90
35277;DHT22;21401;50.878;8.050;2023-02-28T00:32:29;-1.90;99.90
35277;DHT22;21401;50.878;8.050;2023-02-28T00:34:55;-1.90;99.90
35277;DHT22;21401;50.878;8.050;2023-02-28T00:37:21;-1.90;99.90
35277;DHT22;21401;50.878;8.050;2023-02-28T00:39:49;-2.00;99.90
35277;DHT22;21401;50.878;8.050;2023-02-28T00:42:15;-1.90;99.90
35277;DHT22;21401;50.878;8.050;2023-02-28T00:44:41;-1.80;99.90
35277;DHT22;21401;50.878;8.050;2023-02-28T00:47:07;-1.70;99.90
35277;DHT22;21401;50.878;8.050;2023-02-28T00:49:33;-1.80;99.90
35277;DHT22;21401;50.878;8.050;2023-02-28T00:51:58;-1.90;99.90
35277;DHT22;21401;50.878;8.050;2023-02-28T00:54:24;-2.10;99.90
35277;DHT22;21401;50.878;8.050;2023-02-28T00:56:50;-2.20;99.90
35277;DHT22;21401;50.878;8.050;2023-02-28T00:59:16;-2.20;99.90
35277;DHT22;21401;50.878;8.050;2023-02-28T01:01:43;-2.30;99.90
35277;DHT22;21401;50.878;8.050;2023-02-28T01:04:09;-2.40;99.90
35277;DHT22;21401;50.878;8.050;2023-02-28T01:06:35;-2.40;99.90
35277;DHT22;21401;50.878;8.050;2023-02-28T01:09:02;-2.40;99.90
35277;DHT22;21401;50.878;8.050;2023-02-28T01:11:29;-2.40;99.90
35277;DHT22;21401;50.878;8.050;2023-02-28T01:13:55;-2.40;99.90
35277;DHT22;21401;50.878;8.050;2023-02-28T01:16:20;-2.40;99.90
35277;DHT22;21401;50.878;8.050;2023-02-28T01:18:46;-2.50;99.90
35277;DHT22;21401;50.878;8.050;2023-02-28T01:21:18;-2.50;99.90
35277;DHT22;21401;50.878;8.050;2023-02-28T01:23:46;-2.50;99.90
35277;DHT22;21401;50.878;8.050;2023-02-28T01:26:17;-2.40;99.90
35277;DHT22;21401;50.878;8.050;2023-02-28T01:28:43;-2.40;99.90
35277;DHT22;21401;50.878;8.050;2023-02-28T01:31:12;-2.40;99.90
35277;DHT22;21401;50.878;8.050;2023-02-28T01:33:39;-2.40;99.90
35277;DHT22;21401;50.878;8.050;2023-02-28T01:36:10;-2.40;99.90
35277;DHT22;21401;50.878;8.050;2023-02-28T01:38:36;-2.40;99.90
35277;DHT22;21401;50.878;8.050;2023-02-28T01:41:03;-2.30;99.90
35277;DHT22;21401;50.878;8.050;2023-02-28T01:43:32;-2.20;99.90
35277;DHT22;21401;50.878;8.050;2023-02-28T01:46:01;-2.10;99.90
35277;DHT22;21401;50.878;8.050;2023-02-28T01:48:32;-1.80;99.90
35277;DHT22;21401;50.878;8.050;2023-02-28T01:51:01;-1.80;99.90
35277;DHT22;21401;50.878;8.050;2023-02-28T01:53:42;-1.70;99.90
35277;DHT22;21401;50.878;8.050;2023-02-28T01:56:09;-1.60;99.90
35277;DHT22;21401;50.878;8.050;2023-02-28T01:58:37;-1.50;99.90
35277;DHT22;21401;50.878;8.050;2023-02-28T02:01:03;-1.50;99.90
35277;DHT22;21401;50.878;8.050;2023-02-28T02:03:30;-1.50;99.90
35277;DHT22;21401;50.878;8.050;2023-02-28T02:05:56;-1.40;99.90
35277;DHT22;21401;50.878;8.050;2023-02-28T02:08:28;-1.40;99.90
35277;DHT22;21401;50.878;8.050;2023-02-28T02:10:57;-1.40;99.90
35277;DHT22;21401;50.878;8.050;2023-02-28T02:18:51;-1.60;99.90
35277;DHT22;21401;50.878;8.050;2023-02-28T02:21:36;-1.60;99.90
35277;DHT22;21401;50.878;8.050;2023-02-28T02:26:58;-1.70;99.90
35277;DHT22;21401;50.878;8.050;2023-02-28T02:35:24;-2.00;99.90
35277;DHT22;21401;50.878;8.050;2023-02-28T02:40:57;-1.90;99.90
35277;DHT22;21401;50.878;8.050;2023-02-28T02:43:40;-2.00;99.90
35277;DHT22;21401;50.878;8.050;2023-02-28T02:49:11;-2.00;99.90
35277;DHT22;21401;50.878;8.050;2023-02-28T02:51:39;-2.10;99.90
35277;DHT22;21401;50.878;8.050;2023-02-28T02:54:13;-2.10;99.90
35277;DHT22;21401;50.878;8.050;2023-02-28T02:56:43;-2.00;99.90
35277;DHT22;21401;50.878;8.050;2023-02-28T02:59:12;-2.10;99.90
35277;DHT22;21401;50.878;8.050;2023-02-28T03:01:40;-2.10;99.90
35277;DHT22;21401;50.878;8.050;2023-02-28T03:04:10;-2.10;99.90
35277;DHT22;21401;50.878;8.050;2023-02-28T03:06:37;-2.10;99.90
35277;DHT22;21401;50.878;8.050;2023-02-28T03:09:03;-2.10;99.90
35277;DHT22;21401;50.878;8.050;2023-02-28T03:11:30;-2.20;99.90
35277;DHT22;21401;50.878;8.050;2023-02-28T03:14:09;-2.10;99.90
35277;DHT22;21401;50.878;8.050;2023-02-28T03:27:33;-2.10;99.90
35277;DHT22;21401;50.878;8.050;2023-02-28T03:33:24;-2.20;99.90
35277;DHT22;21401;50.878;8.050;2023-02-28T03:35:59;-2.30;99.90
35277;DHT22;21401;50.878;8.050;2023-02-28T03:38:28;-2.10;99.90
35277;DHT22;21401;50.878;8.050;2023-02-28T03:41:01;-2.10;99.90
35277;DHT22;21401;50.878;8.050;2023-02-28T03:43:34;-2.10;99.90
35277;DHT22;21401;50.878;8.050;2023-02-28T03:46:02;-2.10;99.90
35277;DHT22;21401;50.878;8.050;2023-02-28T03:51:19;-2.10;99.90
35277;DHT22;21401;50.878;8.050;2023-02-28T03:53:53;-2.10;99.90
35277;DHT22;21401;50.878;8.050;2023-02-28T03:56:33;-2.10;99.90
35277;DHT22;21401;50.878;8.050;2023-02-28T03:59:08;-2.00;99.90
35277;DHT22;21401;50.878;8.050;2023-02-28T04:01:45;-2.10;99.90
35277;DHT22;21401;50.878;8.050;2023-02-28T04:04:13;-2.20;99.90
35277;DHT22;21401;50.878;8.050;2023-02-28T04:06:40;-2.20;99.90
35277;DHT22;21401;50.878;8.050;2023-02-28T04:09:08;-2.30;99.90
35277;DHT22;21401;50.878;8.050;2023-02-28T04:11:48;-2.30;99.90
35277;DHT22;21401;50.878;8.050;2023-02-28T04:14:16;-2.40;99.90
35277;DHT22;21401;50.878;8.050;2023-02-28T04:16:42;-2.50;99.90
35277;DHT22;21401;50.878;8.050;2023-02-28T04:19:09;-2.60;99.90
35277;DHT22;21401;50.878;8.050;2023-02-28T04:21:37;-2.40;99.90
35277;DHT22;21401;50.878;8.050;2023-02-28T04:24:10;-2.50;99.90
35277;DHT22;21401;50.878;8.050;2023-02-28T04:26:40;-2.50;99.90
35277;DHT22;21401;50.878;8.050;2023-02-28T04:29:06;-2.70;99.90
35277;DHT22;21401;50.878;8.050;2023-02-28T04:31:33;-2.70;99.90
35277;DHT22;21401;50.878;8.050;2023-02-28T04:33:59;-2.80;99.90
35277;DHT22;21401;50.878;8.050;2023-02-28T04:36:25;-2.80;99.90
35277;DHT22;21401;50.878;8.050;2023-02-28T04:38:51;-2.80;99.90
35277;DHT22;21401;50.878;8.050;2023-02-28T04:41:17;-2.80;99.90
35277;DHT22;21401;50.878;8.050;2023-02-28T04:43:43;-2.90;99.90
35277;DHT22;21401;50.878;8.050;2023-02-28T04:46:11;-3.00;99.90
35277;DHT22;21401;50.878;8.050;2023-02-28T04:48:38;-3.00;99.90
35277;DHT22;21401;50.878;8.050;2023-02-28T04:51:08;-2.90;99.90
35277;DHT22;21401;50.878;8.050;2023-02-28T04:53:36;-3.00;99.90
35277;DHT22;21401;50.878;8.050;2023-02-28T04:56:02;-2.90;99.90
35277;DHT22;21401;50.878;8.050;2023-02-28T04:58:28;-3.10;99.90
35277;DHT22;21401;50.878;8.050;2023-02-28T05:01:04;-3.10;99.90
35277;DHT22;21401;50.878;8.050;2023-02-28T05:03:29;-3.00;99.90
35277;DHT22;21401;50.878;8.050;2023-02-28T05:05:55;-2.90;99.90
35277;DHT22;21401;50.878;8.050;2023-02-28T05:08:21;-2.90;99.90
35277;DHT22;21401;50.878;8.050;2023-02-28T05:10:46;-2.90;99.90
35277;DHT22;21401;50.878;8.050;2023-02-28T05:13:12;-2.80;99.90
35277;DHT22;21401;50.878;8.050;2023-02-28T05:15:38;-2.80;99.90
35277;DHT22;21401;50.878;8.050;2023-02-28T05:18:04;-2.70;99.90
35277;DHT22;21401;50.878;8.050;2023-02-28T05:20:30;-2.80;99.90
35277;DHT22;21401;50.878;8.050;2023-02-28T05:22:57;-2.90;99.90
35277;DHT22;21401;50.878;8.050;2023-02-28T05:25:23;-2.90;99.90
35277;DHT22;21401;50.878;8.050;2023-02-28T05:27:49;-3.00;99.90
35277;DHT22;21401;50.878;8.050;2023-02-28T05:30:15;-3.20;99.90
35277;DHT22;21401;50.878;8.050;2023-02-28T05:32:41;-3.20;99.90
35277;DHT22;21401;50.878;8.050;2023-02-28T05:35:08;-3.20;99.90
35277;DHT22;21401;50.878;8.050;2023-02-28T05:37:35;-3.30;99.90
35277;DHT22;21401;50.878;8.050;2023-02-28T05:40:01;-3.40;99.90
35277;DHT22;21401;50.878;8.050;2023-02-28T05:42:26;-3.50;99.90
35277;DHT22;21401;50.878;8.050;2023-02-28T05:44:52;-3.50;99.90
35277;DHT22;21401;50.878;8.050;2023-02-28T05:47:18;-3.50;99.90
35277;DHT22;21401;50.878;8.050;2023-02-28T05:49:43;-3.60;99.90
35277;DHT22;21401;50.878;8.050;2023-02-28T05:52:09;-3.60;99.90
35277;DHT22;21401;50.878;8.050;2023-02-28T05:54:34;-3.60;99.90
35277;DHT22;21401;50.878;8.050;2023-02-28T05:57:00;-3.70;99.90
35277;DHT22;21401;50.878;8.050;2023-02-28T05:59:26;-3.70;99.90
35277;DHT22;21401;50.878;8.050;2023-02-28T06:01:51;-3.80;99.90
35277;DHT22;21401;50.878;8.050;2023-02-28T06:04:20;-3.70;99.90
35277;DHT22;21401;50.878;8.050;2023-02-28T06:06:49;-3.70;99.90
35277;DHT22;21401;50.878;8.050;2023-02-28T06:09:18;-3.80;99.90
35277;DHT22;21401;50.878;8.050;2023-02-28T06:11:44;-3.80;99.90
35277;DHT22;21401;50.878;8.050;2023-02-28T06:14:18;-3.70;99.90
35277;DHT22;21401;50.878;8.050;2023-02-28T06:16:44;-3.50;99.90
35277;DHT22;21401;50.878;8.050;2023-02-28T06:19:10;-3.60;99.90
35277;DHT22;21401;50.878;8.050;2023-02-28T06:21:36;-3.50;99.90
35277;DHT22;21401;50.878;8.050;2023-02-28T06:24:03;-3.40;99.90
35277;DHT22;21401;50.878;8.050;2023-02-28T06:26:29;-3.40;99.90
35277;DHT22;21401;50.878;8.050;2023-02-28T06:28:55;-3.30;99.90
35277;DHT22;21401;50.878;8.050;2023-02-28T06:31:20;-3.30;99.90
35277;DHT22;21401;50.878;8.050;2023-02-28T06:33:48;-3.30;99.90
35277;DHT22;21401;50.878;8.050;2023-02-28T06:36:14;-3.20;99.90
35277;DHT22;21401;50.878;8.050;2023-02-28T06:38:41;-3.10;99.90
35277;DHT22;21401;50.878;8.050;2023-02-28T06:41:07;-3.00;99.90
35277;DHT22;21401;50.878;8.050;2023-02-28T06:43:36;-2.90;99.90
35277;DHT22;21401;50.878;8.050;2023-02-28T06:46:05;-2.90;99.90
35277;DHT22;21401;50.878;8.050;2023-02-28T06:48:31;-2.90;99.90
35277;DHT22;21401;50.878;8.050;2023-02-28T06:51:08;-2.90;99.90
35277;DHT22;21401;50.878;8.050;2023-02-28T06:53:35;-3.00;99.90
35277;DHT22;21401;50.878;8.050;2023-02-28T06:56:09;-2.90;99.90
35277;DHT22;21401;50.878;8.050;2023-02-28T06:58:39;-2.90;99.90
35277;DHT22;21401;50.878;8.050;2023-02-28T07:01:06;-2.90;99.90
35277;DHT22;21401;50.878;8.050;2023-02-28T07:03:32;-2.80;99.90
35277;DHT22;21401;50.878;8.050;2023-02-28T07:05:58;-2.90;99.90
35277;DHT22;21401;50.878;8.050;2023-02-28T07:08:25;-2.80;99.90
35277;DHT22;21401;50.878;8.050;2023-02-28T07:10:55;-2.70;99.90
35277;DHT22;21401;50.878;8.050;2023-02-28T07:13:23;-2.40;99.90
35277;DHT22;21401;50.878;8.050;2023-02-28T07:16:04;-1.90;99.90
35277;DHT22;21401;50.878;8.050;2023-02-28T07:18:31;-1.50;99.90
35277;DHT22;21401;50.878;8.050;2023-02-28T07:20:57;-1.30;99.90
35277;DHT22;21401;50.878;8.050;2023-02-28T07:23:23;-1.20;99.90
35277;DHT22;21401;50.878;8.050;2023-02-28T07:25:50;-1.00;99.90
35277;DHT22;21401;50.878;8.050;2023-02-28T07:28:16;-1.00;99.90
35277;DHT22;21401;50.878;8.050;2023-02-28T07:30:42;-1.00;99.90
35277;DHT22;21401;50.878;8.050;2023-02-28T07:33:07;-0.80;99.90
35277;DHT22;21401;50.878;8.050;2023-02-28T07:35:33;-0.80;99.90
35277;DHT22;21401;50.878;8.050;2023-02-28T07:37:59;-0.70;99.90
35277;DHT22;21401;50.878;8.050;2023-02-28T07:40:26;-0.60;99.90
35277;DHT22;21401;50.878;8.050;2023-02-28T07:42:51;-0.50;99.90
35277;DHT22;21401;50.878;8.050;2023-02-28T07:45:17;-0.30;99.90
35277;DHT22;21401;50.878;8.050;2023-02-28T07:47:44;-0.10;99.90
35277;DHT22;21401;50.878;8.050;2023-02-28T07:50:12;0.10;99.90
35277;DHT22;21401;50.878;8.050;2023-02-28T07:52:38;-0.10;99.90
35277;DHT22;21401;50.878;8.050;2023-02-28T07:55:05;-0.20;99.90
35277;DHT22;21401;50.878;8.050;2023-02-28T07:57:31;0.00;99.90
35277;DHT22;21401;50.878;8.050;2023-02-28T07:59:57;0.30;99.90
35277;DHT22;21401;50.878;8.050;2023-02-28T08:02:23;0.40;99.90
35277;DHT22;21401;50.878;8.050;2023-02-28T08:04:49;0.50;99.90
35277;DHT22;21401;50.878;8.050;2023-02-28T08:07:16;0.50;99.90
35277;DHT22;21401;50.878;8.050;2023-02-28T08:09:42;0.60;99.90
35277;DHT22;21401;50.878;8.050;2023-02-28T08:12:09;0.80;99.90
35277;DHT22;21401;50.878;8.050;2023-02-28T08:14:35;1.00;99.90
35277;DHT22;21401;50.878;8.050;2023-02-28T08:17:02;0.90;99.90
35277;DHT22;21401;50.878;8.050;2023-02-28T08:19:28;0.80;99.90
35277;DHT22;21401;50.878;8.050;2023-02-28T08:21:54;0.90;99.90
35277;DHT22;21401;50.878;8.050;2023-02-28T08:24:20;0.90;99.90
35277;DHT22;21401;50.878;8.050;2023-02-28T08:26:46;1.10;99.90
35277;DHT22;21401;50.878;8.050;2023-02-28T08:29:11;1.10;99.90
35277;DHT22;21401;50.878;8.050;2023-02-28T08:31:37;1.40;99.90
35277;DHT22;21401;50.878;8.050;2023-02-28T08:34:11;1.60;99.90
35277;DHT22;21401;50.878;8.050;2023-02-28T08:36:37;1.90;99.90
35277;DHT22;21401;50.878;8.050;2023-02-28T08:39:03;2.00;99.10
35277;DHT22;21401;50.878;8.050;2023-02-28T08:41:29;2.40;98.50
35277;DHT22;21401;50.878;8.050;2023-02-28T08:43:55;2.60;97.30
35277;DHT22;21401;50.878;8.050;2023-02-28T08:46:21;2.60;97.10
35277;DHT22;21401;50.878;8.050;2023-02-28T08:48:46;2.90;96.80
35277;DHT22;21401;50.878;8.050;2023-02-28T08:51:16;3.10;97.20
35277;DHT22;21401;50.878;8.050;2023-02-28T08:53:47;3.20;97.40
35277;DHT22;21401;50.878;8.050;2023-02-28T08:56:15;2.70;96.70
35277;DHT22;21401;50.878;8.050;2023-02-28T08:58:42;2.60;97.50
35277;DHT22;21401;50.878;8.050;2023-02-28T09:01:10;2.50;98.00
35277;DHT22;21401;50.878;8.050;2023-02-28T09:03:37;2.70;97.90
35277;DHT22;21401;50.878;8.050;2023-02-28T09:06:04;2.40;97.30
35277;DHT22;21401;50.878;8.050;2023-02-28T09:08:30;2.30;97.90
35277;DHT22;21401;50.878;8.050;2023-02-28T09:10:56;2.30;97.30
35277;DHT22;21401;50.878;8.050;2023-02-28T09:13:24;2.50;97.70
35277;DHT22;21401;50.878;8.050;2023-02-28T09:15:50;2.60;98.20
35277;DHT22;21401;50.878;8.050;2023-02-28T09:18:16;2.60;97.30
35277;DHT22;21401;50.878;8.050;2023-02-28T09:20:42;2.10;97.60
35277;DHT22;21401;50.878;8.050;2023-02-28T09:23:10;2.50;98.70
35277;DHT22;21401;50.878;8.050;2023-02-28T09:25:36;2.60;98.20
35277;DHT22;21401;50.878;8.050;2023-02-28T09:28:02;2.70;98.20
35277;DHT22;21401;50.878;8.050;2023-02-28T09:30:29;2.60;98.20
35277;DHT22;21401;50.878;8.050;2023-02-28T09:32:54;2.50;98.20
35277;DHT22;21401;50.878;8.050;2023-02-28T09:35:24;2.20;98.10
35277;DHT22;21401;50.878;8.050;2023-02-28T09:37:51;2.30;99.00
35277;DHT22;21401;50.878;8.050;2023-02-28T09:40:22;2.20;99.50
35277;DHT22;21401;50.878;8.050;2023-02-28T09:42:51;2.10;98.80
35277;DHT22;21401;50.878;8.050;2023-02-28T09:45:37;1.80;99.00
35277;DHT22;21401;50.878;8.050;2023-02-28T09:48:17;2.00;98.90
35277;DHT22;21401;50.878;8.050;2023-02-28T09:50:54;2.10;98.70
35277;DHT22;21401;50.878;8.050;2023-02-28T09:53:34;2.30;98.50
35277;DHT22;21401;50.878;8.050;2023-02-28T09:56:30;2.30;98.10
35277;DHT22;21401;50.878;8.050;2023-02-28T10:02:35;2.70;96.70
35277;DHT22;21401;50.878;8.050;2023-02-28T10:05:16;2.90;96.50
35277;DHT22;21401;50.878;8.050;2023-02-28T10:12:45;2.40;97.50
35277;DHT22;21401;50.878;8.050;2023-02-28T10:15:15;2.40;97.30
35277;DHT22;21401;50.878;8.050;2023-02-28T10:17:45;2.90;97.00
35277;DHT22;21401;50.878;8.050;2023-02-28T10:20:14;3.10;96.70
35277;DHT22;21401;50.878;8.050;2023-02-28T10:25:27;3.30;97.70
35277;DHT22;21401;50.878;8.050;2023-02-28T10:27:58;3.80;97.80
35277;DHT22;21401;50.878;8.050;2023-02-28T10:30:26;3.60;97.10
35277;DHT22;21401;50.878;8.050;2023-02-28T10:32:52;3.80;96.80
35277;DHT22;21401;50.878;8.050;2023-02-28T10:35:24;3.60;97.80
35277;DHT22;21401;50.878;8.050;2023-02-28T10:37:56;3.10;97.90
35277;DHT22;21401;50.878;8.050;2023-02-28T10:42:56;3.70;98.20
35277;DHT22;21401;50.878;8.050;2023-02-28T10:45:22;3.60;97.90
35277;DHT22;21401;50.878;8.050;2023-02-28T10:47:57;3.60;97.20
35277;DHT22;21401;50.878;8.050;2023-02-28T10:58:49;3.40;97.40
35277;DHT22;21401;50.878;8.050;2023-02-28T11:03:43;3.50;97.30
35277;DHT22;21401;50.878;8.050;2023-02-28T11:06:23;3.70;97.20
35277;DHT22;21401;50.878;8.050;2023-02-28T11:08:59;3.40;96.80
35277;DHT22;21401;50.878;8.050;2023-02-28T11:11:28;3.70;97.20
35277;DHT22;21401;50.878;8.050;2023-02-28T11:14:03;3.70;96.30
35277;DHT22;21401;50.878;8.050;2023-02-28T11:16:37;3.80;96.90
35277;DHT22;21401;50.878;8.050;2023-02-28T11:19:06;3.90;96.20
35277;DHT22;21401;50.878;8.050;2023-02-28T11:21:49;4.00;96.20
35277;DHT22;21401;50.878;8.050;2023-02-28T11:24:31;3.90;95.30
35277;DHT22;21401;50.878;8.050;2023-02-28T11:26:59;4.10;96.10
35277;DHT22;21401;50.878;8.050;2023-02-28T11:29:31;3.80;95.70
35277;DHT22;21401;50.878;8.050;2023-02-28T11:32:19;3.50;96.10
35277;DHT22;21401;50.878;8.050;2023-02-28T11:34:46;3.20;96.70
35277;DHT22;21401;50.878;8.050;2023-02-28T11:37:18;3.70;96.10
35277;DHT22;21401;50.878;8.050;2023-02-28T11:39:45;4.20;95.90
35277;DHT22;21401;50.878;8.050;2023-02-28T11:53:01;4.00;96.00
35277;DHT22;21401;50.878;8.050;2023-02-28T11:58:37;4.20;96.90
35277;DHT22;21401;50.878;8.050;2023-02-28T12:06:36;3.70;97.50
35277;DHT22;21401;50.878;8.050;2023-02-28T12:09:35;4.00;97.20
35277;DHT22;21401;50.878;8.050;2023-02-28T12:14:58;4.20;96.70
35277;DHT22;21401;50.878;8.050;2023-02-28T12:17:59;4.10;96.90
35277;DHT22;21401;50.878;8.050;2023-02-28T12:20:50;4.00;95.90
35277;DHT22;21401;50.878;8.050;2023-02-28T12:23:33;4.20;96.30
35277;DHT22;21401;50.878;8.050;2023-02-28T12:28:46;4.20;96.80
35277;DHT22;21401;50.878;8.050;2023-02-28T12:31:29;4.40;96.50
35277;DHT22;21401;50.878;8.050;2023-02-28T12:34:00;4.60;95.40
35277;DHT22;21401;50.878;8.050;2023-02-28T12:36:27;4.70;94.90
35277;DHT22;21401;50.878;8.050;2023-02-28T12:39:01;4.10;94.80
35277;DHT22;21401;50.878;8.050;2023-02-28T12:41:46;4.50;95.70
35277;DHT22;21401;50.878;8.050;2023-02-28T12:44:23;4.50;95.30
35277;DHT22;21401;50.878;8.050;2023-02-28T12:46:54;4.50;95.80
35277;DHT22;21401;50.878;8.050;2023-02-28T12:49:39;4.80;95.50
35277;DHT22;21401;50.878;8.050;2023-02-28T12:52:08;4.50;95.70
35277;DHT22;21401;50.878;8.050;2023-02-28T12:54:52;4.80;96.00
35277;DHT22;21401;50.878;8.050;2023-02-28T12:57:50;4.70;96.80
35277;DHT22;21401;50.878;8.050;2023-02-28T13:00:22;4.30;95.70
35277;DHT22;21401;50.878;8.050;2023-02-28T13:06:38;4.30;96.40
35277;DHT22;21401;50.878;8.050;2023-02-28T13:09:30;4.30;96.30
35277;DHT22;21401;50.878;8.050;2023-02-28T13:11:50;4.20;96.00
35277;DHT22;21401;50.878;8.050;2023-02-28T13:17:10;4.20;95.90
35277;DHT22;21401;50.878;8.050;2023-02-28T13:27:55;4.40;95.80
35277;DHT22;21401;50.878;8.050;2023-02-28T13:33:31;4.70;95.20
35277;DHT22;21401;50.878;8.050;2023-02-28T13:38:44;4.40;95.50
35277;DHT22;21401;50.878;8.050;2023-02-28T13:46:27;4.60;95.90
35277;DHT22;21401;50.878;8.050;2023-02-28T13:48:53;4.70;95.90
35277;DHT22;21401;50.878;8.050;2023-02-28T13:51:47;4.70;94.80
35277;DHT22;21401;50.878;8.050;2023-02-28T13:57:21;4.70;96.10
35277;DHT22;21401;50.878;8.050;2023-02-28T14:08:34;4.70;96.00
35277;DHT22;21401;50.878;8.050;2023-02-28T14:11:06;4.60;96.00
35277;DHT22;21401;50.878;8.050;2023-02-28T14:13:43;4.70;96.70
35277;DHT22;21401;50.878;8.050;2023-02-28T14:16:20;4.70;96.40
35277;DHT22;21401;50.878;8.050;2023-02-28T14:18:58;4.90;97.00
35277;DHT22;21401;50.878;8.050;2023-02-28T14:21:29;4.80;95.70
35277;DHT22;21401;50.878;8.050;2023-02-28T14:24:23;4.90;96.00
35277;DHT22;21401;50.878;8.050;2023-02-28T14:27:05;4.80;95.70
35277;DHT22;21401;50.878;8.050;2023-02-28T14:35:46;4.60;96.30
35277;DHT22;21401;50.878;8.050;2023-02-28T14:38:24;4.70;96.60
35277;DHT22;21401;50.878;8.050;2023-02-28T14:40:52;4.70;96.40
35277;DHT22;21401;50.878;8.050;2023-02-28T14:43:27;4.70;96.70
35277;DHT22;21401;50.878;8.050;2023-02-28T14:45:57;4.40;97.00
35277;DHT22;21401;50.878;8.050;2023-02-28T14:48:23;4.50;96.90
35277;DHT22;21401;50.878;8.050;2023-02-28T14:50:58;4.40;96.70
35277;DHT22;21401;50.878;8.050;2023-02-28T14:53:28;4.40;96.70
35277;DHT22;21401;50.878;8.050;2023-02-28T14:55:55;4.30;96.60
35277;DHT22;21401;50.878;8.050;2023-02-28T14:58:27;4.30;97.30
35277;DHT22;21401;50.878;8.050;2023-02-28T15:00:56;4.50;97.40
35277;DHT22;21401;50.878;8.050;2023-02-28T15:03:34;4.50;96.90
35277;DHT22;21401;50.878;8.050;2023-02-28T15:06:03;4.40;96.20
35277;DHT22;21401;50.878;8.050;2023-02-28T15:08:30;4.30;96.50
35277;DHT22;21401;50.878;8.050;2023-02-28T15:11:03;4.40;96.70
35277;DHT22;21401;50.878;8.050;2023-02-28T15:16:05;4.50;96.50
35277;DHT22;21401;50.878;8.050;2023-02-28T15:19:04;4.50;96.50
35277;DHT22;21401;50.878;8.050;2023-02-28T15:21:34;4.40;96.80
35277;DHT22;21401;50.878;8.050;2023-02-28T15:26:33;4.20;96.90
35277;DHT22;21401;50.878;8.050;2023-02-28T15:29:03;4.20;96.90
35277;DHT22;21401;50.878;8.050;2023-02-28T15:31:33;4.20;97.00
35277;DHT22;21401;50.878;8.050;2023-02-28T15:34:04;4.30;97.40
35277;DHT22;21401;50.878;8.050;2023-02-28T15:36:32;4.20;96.70
35277;DHT22;21401;50.878;8.050;2023-02-28T15:39:00;4.10;96.60
35277;DHT22;21401;50.878;8.050;2023-02-28T15:41:31;4.00;96.90
35277;DHT22;21401;50.878;8.050;2023-02-28T15:44:23;3.90;97.40
35277;DHT22;21401;50.878;8.050;2023-02-28T15:47:04;3.80;97.80
35277;DHT22;21401;50.878;8.050;2023-02-28T15:49:45;3.80;97.40
35277;DHT22;21401;50.878;8.050;2023-02-28T15:54:52;3.70;97.70
35277;DHT22;21401;50.878;8.050;2023-02-28T15:57:21;3.60;98.00
35277;DHT22;21401;50.878;8.050;2023-02-28T16:00:00;3.60;97.80
35277;DHT22;21401;50.878;8.050;2023-02-28T16:02:34;3.50;98.10
35277;DHT22;21401;50.878;8.050;2023-02-28T16:07:42;3.50;98.10
35277;DHT22;21401;50.878;8.050;2023-02-28T16:10:11;3.50;98.10
35277;DHT22;21401;50.878;8.050;2023-02-28T16:12:38;3.50;98.20
35277;DHT22;21401;50.878;8.050;2023-02-28T16:15:22;3.50;97.90
35277;DHT22;21401;50.878;8.050;2023-02-28T16:17:49;3.40;98.40
35277;DHT22;21401;50.878;8.050;2023-02-28T16:20:23;3.30;98.20
35277;DHT22;21401;50.878;8.050;2023-02-28T16:22:49;3.20;98.40
35277;DHT22;21401;50.878;8.050;2023-02-28T16:25:16;3.20;98.60
35277;DHT22;21401;50.878;8.050;2023-02-28T16:27:45;3.20;98.80
35277;DHT22;21401;50.878;8.050;2023-02-28T16:30:24;3.20;98.20
35277;DHT22;21401;50.878;8.050;2023-02-28T16:32:50;3.20;98.50
35277;DHT22;21401;50.878;8.050;2023-02-28T16:35:17;3.10;98.50
35277;DHT22;21401;50.878;8.050;2023-02-28T16:37:43;3.10;98.70
35277;DHT22;21401;50.878;8.050;2023-02-28T16:40:15;3.00;98.90
35277;DHT22;21401;50.878;8.050;2023-02-28T16:42:41;2.90;98.90
35277;DHT22;21401;50.878;8.050;2023-02-28T16:45:15;2.90;99.00
35277;DHT22;21401;50.878;8.050;2023-02-28T16:47:42;2.90;99.10
35277;DHT22;21401;50.878;8.050;2023-02-28T16:50:19;2.90;99.10
35277;DHT22;21401;50.878;8.050;2023-02-28T16:52:45;2.90;98.90
35277;DHT22;21401;50.878;8.050;2023-02-28T16:55:11;2.80;99.10
35277;DHT22;21401;50.878;8.050;2023-02-28T16:57:38;2.80;99.30
35277;DHT22;21401;50.878;8.050;2023-02-28T17:00:06;2.70;99.30
35277;DHT22;21401;50.878;8.050;2023-02-28T17:02:33;2.60;99.60
35277;DHT22;21401;50.878;8.050;2023-02-28T17:04:59;2.50;99.80
35277;DHT22;21401;50.878;8.050;2023-02-28T17:07:25;2.50;99.90
35277;DHT22;21401;50.878;8.050;2023-02-28T17:09:51;2.30;99.90
35277;DHT22;21401;50.878;8.050;2023-02-28T17:12:16;2.00;99.90
35277;DHT22;21401;50.878;8.050;2023-02-28T17:14:42;1.70;99.90
35277;DHT22;21401;50.878;8.050;2023-02-28T17:17:15;1.40;99.90
35277;DHT22;21401;50.878;8.050;2023-02-28T17:19:41;1.30;99.90
35277;DHT22;21401;50.878;8.050;2023-02-28T17:22:09;1.10;99.90
35277;DHT22;21401;50.878;8.050;2023-02-28T17:24:35;1.10;99.90
35277;DHT22;21401;50.878;8.050;2023-02-28T17:27:01;1.00;99.90
35277;DHT22;21401;50.878;8.050;2023-02-28T17:29:26;1.00;99.90
35277;DHT22;21401;50.878;8.050;2023-02-28T17:31:52;1.00;99.90
35277;DHT22;21401;50.878;8.050;2023-02-28T17:34:18;0.90;99.90
35277;DHT22;21401;50.878;8.050;2023-02-28T17:36:46;0.80;99.90
35277;DHT22;21401;50.878;8.050;2023-02-28T17:39:13;0.80;99.90
35277;DHT22;21401;50.878;8.050;2023-02-28T17:41:40;0.90;99.90
35277;DHT22;21401;50.878;8.050;2023-02-28T17:44:08;0.80;99.90
35277;DHT22;21401;50.878;8.050;2023-02-28T17:46:34;0.70;99.90
35277;DHT22;21401;50.878;8.050;2023-02-28T17:49:00;0.80;99.90
35277;DHT22;21401;50.878;8.050;2023-02-28T17:51:26;0.80;99.90
35277;DHT22;21401;50.878;8.050;2023-02-28T17:53:52;1.00;99.90
35277;DHT22;21401;50.878;8.050;2023-02-28T17:56:21;0.90;99.90
35277;DHT22;21401;50.878;8.050;2023-02-28T17:58:48;0.80;99.90
35277;DHT22;21401;50.878;8.050;2023-02-28T18:01:14;0.80;99.90
35277;DHT22;21401;50.878;8.050;2023-02-28T18:03:40;1.00;99.90
35277;DHT22;21401;50.878;8.050;2023-02-28T18:06:06;1.00;99.90
35277;DHT22;21401;50.878;8.050;2023-02-28T18:08:35;1.00;99.90
35277;DHT22;21401;50.878;8.050;2023-02-28T18:11:01;0.90;99.90
35277;DHT22;21401;50.878;8.050;2023-02-28T18:13:26;1.00;99.90
35277;DHT22;21401;50.878;8.050;2023-02-28T18:15:53;1.00;99.90